sensor_id;sensor_type;location;lat;lon;timestamp;pressure;altitude;pressure_sealevel;temperature;humidity
75945;BME280;64628;50.104;14.614;2024-03-23T00:56:07;97906.44;;;14.80;34.11
75945;BME280;64628;50.104;14.614;2024-03-23T00:58:33;97906.70;;;14.41;34.30
75945;BME280;64628;50.104;14.614;2024-03-23T01:00:58;97904.19;;;14.59;34.35
75945;BME280;64628;50.104;14.614;2024-03-23T01:03:24;97895.90;;;14.60;34.30
75945;BME280;64628;50.104;14.614;2024-03-23T01:05:49;97889.19;;;14.44;34.28
75945;BME280;64628;50.104;14.614;2024-03-23T01:08:15;97885.67;;;14.54;34.24
75945;BME280;64628;50.104;14.614;2024-03-23T01:10:40;97880.88;;;14.77;34.11
75945;BME280;64628;50.104;14.614;2024-03-23T01:13:06;97879.45;;;14.60;34.22
75945;BME280;64628;50.104;14.614;2024-03-23T01:15:31;97872.29;;;14.95;33.99
75945;BME280;64628;50.104;14.614;2024-03-23T01:17:56;97868.13;;;14.76;34.02
75945;BME280;64628;50.104;14.614;2024-03-23T01:20:21;97866.39;;;14.67;34.35
75945;BME280;64628;50.104;14.614;2024-03-23T01:22:46;97864.42;;;14.68;34.42
75945;BME280;64628;50.104;14.614;2024-03-23T01:25:18;97859.35;;;14.46;34.31
75945;BME280;64628;50.104;14.614;2024-03-23T01:27:37;97853.74;;;14.74;33.84
75945;BME280;64628;50.104;14.614;2024-03-23T01:30:03;97846.39;;;14.69;33.93
75945;BME280;64628;50.104;14.614;2024-03-23T01:32:27;97849.83;;;14.71;33.98
75945;BME280;64628;50.104;14.614;2024-03-23T01:34:53;97840.70;;;14.66;33.82
75945;BME280;64628;50.104;14.614;2024-03-23T01:37:18;97834.33;;;14.49;33.83
75945;BME280;64628;50.104;14.614;2024-03-23T01:39:44;97831.19;;;14.73;33.55
75945;BME280;64628;50.104;14.614;2024-03-23T01:42:09;97822.51;;;14.88;33.43
75945;BME280;64628;50.104;14.614;2024-03-23T01:44:35;97824.16;;;14.96;33.03
75945;BME280;64628;50.104;14.614;2024-03-23T01:47:00;97824.91;;;14.76;33.04
75945;BME280;64628;50.104;14.614;2024-03-23T01:49:25;97816.76;;;15.01;33.26
75945;BME280;64628;50.104;14.614;2024-03-23T01:51:50;97817.36;;;15.09;33.04
75945;BME280;64628;50.104;14.614;2024-03-23T01:54:16;97815.38;;;14.99;33.22
75945;BME280;64628;50.104;14.614;2024-03-23T01:56:42;97813.81;;;15.05;32.94
75945;BME280;64628;50.104;14.614;2024-03-23T01:59:07;97809.54;;;15.10;32.73
75945;BME280;64628;50.104;14.614;2024-03-23T02:01:34;97806.59;;;14.74;32.90
75945;BME280;64628;50.104;14.614;2024-03-23T02:03:58;97807.38;;;14.99;33.26
75945;BME280;64628;50.104;14.614;2024-03-23T02:06:24;97803.92;;;14.89;33.14
75945;BME280;64628;50.104;14.614;2024-03-23T02:08:48;97804.56;;;14.56;33.26
75945;BME280;64628;50.104;14.614;2024-03-23T02:11:14;97803.40;;;14.72;33.35
75945;BME280;64628;50.104;14.614;2024-03-23T02:13:40;97801.73;;;14.75;33.39
75945;BME280;64628;50.104;14.614;2024-03-23T02:16:05;97799.34;;;14.75;33.05
75945;BME280;64628;50.104;14.614;2024-03-23T02:18:30;97797.11;;;14.70;33.06
75945;BME280;64628;50.104;14.614;2024-03-23T02:20:56;97793.79;;;14.81;32.82
75945;BME280;64628;50.104;14.614;2024-03-23T02:23:21;97794.45;;;14.66;32.93
75945;BME280;64628;50.104;14.614;2024-03-23T02:25:47;97795.66;;;14.89;33.33
75945;BME280;64628;50.104;14.614;2024-03-23T02:28:12;97792.42;;;14.58;33.49
75945;BME280;64628;50.104;14.614;2024-03-23T02:30:37;97779.63;;;14.46;33.27
75945;BME280;64628;50.104;14.614;2024-03-23T02:33:03;97777.04;;;14.75;33.16
75945;BME280;64628;50.104;14.614;2024-03-23T02:35:29;97771.51;;;14.74;33.28
75945;BME280;64628;50.104;14.614;2024-03-23T02:37:54;97768.38;;;14.78;33.23
75945;BME280;64628;50.104;14.614;2024-03-23T02:40:20;97765.41;;;14.82;33.15
75945;BME280;64628;50.104;14.614;2024-03-23T02:42:45;97757.95;;;14.68;33.04
75945;BME280;64628;50.104;14.614;2024-03-23T02:45:09;97757.66;;;14.50;33.20
75945;BME280;64628;50.104;14.614;2024-03-23T02:47:34;97752.72;;;14.49;33.40
75945;BME280;64628;50.104;14.614;2024-03-23T02:50:00;97746.78;;;14.40;33.86
75945;BME280;64628;50.104;14.614;2024-03-23T02:52:26;97744.14;;;14.56;33.92
75945;BME280;64628;50.104;14.614;2024-03-23T02:54:51;97737.97;;;14.61;33.78
75945;BME280;64628;50.104;14.614;2024-03-23T02:57:17;97735.75;;;14.24;33.79
75945;BME280;64628;50.104;14.614;2024-03-23T02:59:42;97731.84;;;14.46;33.91
75945;BME280;64628;50.104;14.614;2024-03-23T03:02:07;97728.30;;;14.09;34.10
75945;BME280;64628;50.104;14.614;2024-03-23T03:04:33;97727.06;;;13.84;33.99
75945;BME280;64628;50.104;14.614;2024-03-23T03:06:58;97725.91;;;14.01;34.29
75945;BME280;64628;50.104;14.614;2024-03-23T03:09:23;97726.37;;;14.08;34.55
75945;BME280;64628;50.104;14.614;2024-03-23T03:11:49;97725.21;;;14.07;34.39
75945;BME280;64628;50.104;14.614;2024-03-23T03:14:14;97722.79;;;13.92;34.40
75945;BME280;64628;50.104;14.614;2024-03-23T03:16:40;97717.08;;;13.79;34.57
75945;BME280;64628;50.104;14.614;2024-03-23T03:19:05;97712.00;;;13.71;34.64
75945;BME280;64628;50.104;14.614;2024-03-23T03:21:30;97705.88;;;13.65;34.55
75945;BME280;64628;50.104;14.614;2024-03-23T03:23:56;97707.96;;;13.72;34.74
75945;BME280;64628;50.104;14.614;2024-03-23T03:26:21;97700.33;;;13.48;34.73
75945;BME280;64628;50.104;14.614;2024-03-23T03:28:46;97699.03;;;13.35;34.98
75945;BME280;64628;50.104;14.614;2024-03-23T03:31:11;97695.01;;;13.85;35.08
75945;BME280;64628;50.104;14.614;2024-03-23T03:33:36;97689.99;;;13.33;35.22
75945;BME280;64628;50.104;14.614;2024-03-23T03:36:02;97689.65;;;13.26;35.45
75945;BME280;64628;50.104;14.614;2024-03-23T03:38:27;97691.76;;;13.18;35.52
75945;BME280;64628;50.104;14.614;2024-03-23T03:40:53;97696.27;;;13.04;35.87
75945;BME280;64628;50.104;14.614;2024-03-23T03:43:18;97691.12;;;13.15;35.93
75945;BME280;64628;50.104;14.614;2024-03-23T03:45:51;97684.33;;;13.02;35.97
75945;BME280;64628;50.104;14.614;2024-03-23T03:48:09;97675.68;;;12.84;35.95
75945;BME280;64628;50.104;14.614;2024-03-23T03:50:35;97676.01;;;12.75;36.17
75945;BME280;64628;50.104;14.614;2024-03-23T03:53:01;97676.18;;;12.64;36.39
75945;BME280;64628;50.104;14.614;2024-03-23T03:55:26;97675.06;;;12.52;36.85
75945;BME280;64628;50.104;14.614;2024-03-23T03:57:51;97670.42;;;12.61;37.27
75945;BME280;64628;50.104;14.614;2024-03-23T04:00:18;97665.15;;;12.27;37.27
75945;BME280;64628;50.104;14.614;2024-03-23T04:02:42;97658.71;;;12.18;37.40
75945;BME280;64628;50.104;14.614;2024-03-23T04:05:08;97656.26;;;12.29;37.46
75945;BME280;64628;50.104;14.614;2024-03-23T04:07:33;97653.85;;;12.18;37.46
75945;BME280;64628;50.104;14.614;2024-03-23T04:09:59;97655.29;;;12.09;37.37
75945;BME280;64628;50.104;14.614;2024-03-23T04:12:24;97652.10;;;12.16;37.74
75945;BME280;64628;50.104;14.614;2024-03-23T04:14:49;97649.66;;;11.93;37.73
75945;BME280;64628;50.104;14.614;2024-03-23T04:17:15;97649.02;;;11.96;37.57
75945;BME280;64628;50.104;14.614;2024-03-23T04:19:40;97649.17;;;12.16;37.58
75945;BME280;64628;50.104;14.614;2024-03-23T04:22:05;97649.87;;;11.93;37.59
75945;BME280;64628;50.104;14.614;2024-03-23T04:24:31;97644.28;;;12.32;37.65
75945;BME280;64628;50.104;14.614;2024-03-23T04:26:57;97642.48;;;12.23;37.36
75945;BME280;64628;50.104;14.614;2024-03-23T04:29:22;97641.35;;;12.13;37.13
75945;BME280;64628;50.104;14.614;2024-03-23T04:31:47;97635.06;;;12.36;37.05
75945;BME280;64628;50.104;14.614;2024-03-23T04:34:13;97618.52;;;12.57;37.14
75945;BME280;64628;50.104;14.614;2024-03-23T04:36:38;97611.72;;;12.71;36.75
75945;BME280;64628;50.104;14.614;2024-03-23T04:39:03;97611.52;;;12.60;36.22
75945;BME280;64628;50.104;14.614;2024-03-23T04:41:28;97611.30;;;12.80;36.31
75945;BME280;64628;50.104;14.614;2024-03-23T04:43:53;97617.53;;;12.82;36.38
75945;BME280;64628;50.104;14.614;2024-03-23T04:46:19;97619.58;;;13.00;36.06
75945;BME280;64628;50.104;14.614;2024-03-23T04:48:45;97611.61;;;13.08;35.90
75945;BME280;64628;50.104;14.614;2024-03-23T04:51:10;97607.71;;;13.09;35.72
75945;BME280;64628;50.104;14.614;2024-03-23T04:53:35;97610.37;;;12.79;35.91
75945;BME280;64628;50.104;14.614;2024-03-23T04:56:01;97611.55;;;12.87;35.97
75945;BME280;64628;50.104;14.614;2024-03-23T04:58:26;97606.94;;;12.64;36.08
75945;BME280;64628;50.104;14.614;2024-03-23T05:00:55;97598.04;;;12.87;36.12
75945;BME280;64628;50.104;14.614;2024-03-23T05:03:17;97594.74;;;13.03;36.11
75945;BME280;64628;50.104;14.614;2024-03-23T05:05:43;97594.38;;;13.02;36.16
75945;BME280;64628;50.104;14.614;2024-03-23T05:08:08;97596.11;;;12.94;36.45
75945;BME280;64628;50.104;14.614;2024-03-23T05:10:33;97595.66;;;12.85;36.46
75945;BME280;64628;50.104;14.614;2024-03-23T05:12:59;97592.93;;;12.83;36.64
75945;BME280;64628;50.104;14.614;2024-03-23T05:15:25;97581.54;;;12.88;36.68
75945;BME280;64628;50.104;14.614;2024-03-23T05:17:50;97576.96;;;12.94;36.72
75945;BME280;64628;50.104;14.614;2024-03-23T05:20:15;97575.43;;;13.04;36.40
75945;BME280;64628;50.104;14.614;2024-03-23T05:22:41;97574.33;;;13.18;36.16
75945;BME280;64628;50.104;14.614;2024-03-23T05:25:07;97571.84;;;13.29;35.97
75945;BME280;64628;50.104;14.614;2024-03-23T05:27:33;97569.24;;;12.87;35.95
75945;BME280;64628;50.104;14.614;2024-03-23T05:29:57;97568.54;;;13.30;35.79
75945;BME280;64628;50.104;14.614;2024-03-23T05:32:23;97563.96;;;13.24;35.58
75945;BME280;64628;50.104;14.614;2024-03-23T05:34:48;97564.71;;;13.42;35.47
75945;BME280;64628;50.104;14.614;2024-03-23T05:37:14;97556.70;;;13.60;35.17
75945;BME280;64628;50.104;14.614;2024-03-23T05:39:39;97550.19;;;13.91;34.83
75945;BME280;64628;50.104;14.614;2024-03-23T05:42:04;97551.40;;;13.98;34.78
75945;BME280;64628;50.104;14.614;2024-03-23T05:44:30;97547.60;;;14.15;34.70
75945;BME280;64628;50.104;14.614;2024-03-23T05:46:55;97543.32;;;14.26;34.59
75945;BME280;64628;50.104;14.614;2024-03-23T05:49:20;97533.00;;;14.16;34.37
75945;BME280;64628;50.104;14.614;2024-03-23T05:51:45;97529.13;;;14.53;34.28
75945;BME280;64628;50.104;14.614;2024-03-23T05:54:11;97524.80;;;14.18;34.47
75945;BME280;64628;50.104;14.614;2024-03-23T05:56:36;97519.87;;;13.86;34.76
75945;BME280;64628;50.104;14.614;2024-03-23T05:59:02;97520.01;;;14.35;34.59
75945;BME280;64628;50.104;14.614;2024-03-23T06:01:27;97513.64;;;14.12;34.95
75945;BME280;64628;50.104;14.614;2024-03-23T06:03:52;97512.02;;;14.04;34.84
75945;BME280;64628;50.104;14.614;2024-03-23T06:06:17;97507.69;;;14.48;34.56
75945;BME280;64628;50.104;14.614;2024-03-23T06:08:43;97508.25;;;14.03;34.61
75945;BME280;64628;50.104;14.614;2024-03-23T06:11:08;97505.21;;;14.62;34.50
75945;BME280;64628;50.104;14.614;2024-03-23T06:13:36;97501.63;;;14.04;34.77
75945;BME280;64628;50.104;14.614;2024-03-23T06:15:59;97496.96;;;14.26;34.56
75945;BME280;64628;50.104;14.614;2024-03-23T06:18:25;97495.64;;;14.59;34.51
75945;BME280;64628;50.104;14.614;2024-03-23T06:20:50;97493.10;;;14.61;34.63
75945;BME280;64628;50.104;14.614;2024-03-23T06:23:16;97491.68;;;14.57;34.38
75945;BME280;64628;50.104;14.614;2024-03-23T06:25:41;97487.75;;;14.73;34.21
75945;BME280;64628;50.104;14.614;2024-03-23T06:28:07;97474.43;;;15.03;34.14
75945;BME280;64628;50.104;14.614;2024-03-23T06:30:32;97472.10;;;14.80;33.99
75945;BME280;64628;50.104;14.614;2024-03-23T06:32:57;97479.84;;;15.08;33.86
75945;BME280;64628;50.104;14.614;2024-03-23T06:35:23;97478.58;;;14.99;33.89
75945;BME280;64628;50.104;14.614;2024-03-23T06:37:48;97478.55;;;14.49;34.69
75945;BME280;64628;50.104;14.614;2024-03-23T06:40:13;97463.53;;;15.01;34.39
75945;BME280;64628;50.104;14.614;2024-03-23T06:42:39;97453.33;;;14.93;34.46
75945;BME280;64628;50.104;14.614;2024-03-23T06:45:05;97450.38;;;14.64;34.41
75945;BME280;64628;50.104;14.614;2024-03-23T06:47:29;97449.84;;;14.99;34.29
75945;BME280;64628;50.104;14.614;2024-03-23T06:49:55;97447.77;;;15.52;33.27
75945;BME280;64628;50.104;14.614;2024-03-23T06:52:20;97436.06;;;15.38;33.08
75945;BME280;64628;50.104;14.614;2024-03-23T06:54:46;97425.27;;;16.64;31.95
75945;BME280;64628;50.104;14.614;2024-03-23T06:57:11;97428.98;;;17.26;30.77
75945;BME280;64628;50.104;14.614;2024-03-23T06:59:36;97421.44;;;16.92;30.48
75945;BME280;64628;50.104;14.614;2024-03-23T07:02:01;97412.91;;;16.83;30.58
75945;BME280;64628;50.104;14.614;2024-03-23T07:04:27;97412.96;;;17.66;30.07
75945;BME280;64628;50.104;14.614;2024-03-23T07:06:52;97410.38;;;18.87;28.45
75945;BME280;64628;50.104;14.614;2024-03-23T07:09:18;97404.47;;;22.01;24.86
75945;BME280;64628;50.104;14.614;2024-03-23T07:11:44;97397.71;;;22.65;23.38
75945;BME280;64628;50.104;14.614;2024-03-23T07:14:08;97390.67;;;23.87;22.27
75945;BME280;64628;50.104;14.614;2024-03-23T07:16:34;97381.11;;;25.04;20.40
75945;BME280;64628;50.104;14.614;2024-03-23T07:18:59;97383.42;;;26.15;19.54
75945;BME280;64628;50.104;14.614;2024-03-23T07:21:24;97377.43;;;26.84;18.51
75945;BME280;64628;50.104;14.614;2024-03-23T07:23:49;97367.76;;;26.32;18.88
75945;BME280;64628;50.104;14.614;2024-03-23T07:26:15;97359.90;;;23.72;21.10
75945;BME280;64628;50.104;14.614;2024-03-23T07:28:41;97359.74;;;21.84;23.15
75945;BME280;64628;50.104;14.614;2024-03-23T07:31:07;97356.59;;;20.68;24.84
75945;BME280;64628;50.104;14.614;2024-03-23T07:33:32;97353.78;;;20.41;25.54
75945;BME280;64628;50.104;14.614;2024-03-23T07:35:57;97334.13;;;21.51;24.42
75945;BME280;64628;50.104;14.614;2024-03-23T07:38:23;97336.84;;;22.69;22.86
75945;BME280;64628;50.104;14.614;2024-03-23T07:40:47;97332.84;;;24.41;21.28
75945;BME280;64628;50.104;14.614;2024-03-23T07:43:12;97335.70;;;23.96;21.25
75945;BME280;64628;50.104;14.614;2024-03-23T07:45:38;97330.92;;;24.89;20.13
75945;BME280;64628;50.104;14.614;2024-03-23T07:48:04;97329.10;;;25.90;19.44
75945;BME280;64628;50.104;14.614;2024-03-23T07:50:28;97320.71;;;26.60;18.42
75945;BME280;64628;50.104;14.614;2024-03-23T07:52:54;97320.43;;;26.88;17.99
75945;BME280;64628;50.104;14.614;2024-03-23T07:55:20;97317.36;;;25.33;19.47
75945;BME280;64628;50.104;14.614;2024-03-23T07:57:44;97304.25;;;25.01;19.79
75945;BME280;64628;50.104;14.614;2024-03-23T08:00:12;97299.69;;;25.37;19.78
75945;BME280;64628;50.104;14.614;2024-03-23T08:02:36;97288.70;;;25.29;19.61
75945;BME280;64628;50.104;14.614;2024-03-23T08:05:00;97291.25;;;24.98;19.49
75945;BME280;64628;50.104;14.614;2024-03-23T08:07:26;97282.36;;;25.51;19.40
75945;BME280;64628;50.104;14.614;2024-03-23T08:09:51;97265.10;;;24.45;19.86
75945;BME280;64628;50.104;14.614;2024-03-23T08:12:16;97267.65;;;24.33;20.18
75945;BME280;64628;50.104;14.614;2024-03-23T08:14:43;97278.59;;;25.05;19.48
75945;BME280;64628;50.104;14.614;2024-03-23T08:17:07;97273.49;;;25.85;18.60
75945;BME280;64628;50.104;14.614;2024-03-23T08:19:32;97273.85;;;24.81;19.59
75945;BME280;64628;50.104;14.614;2024-03-23T08:21:58;97269.60;;;24.49;19.90
75945;BME280;64628;50.104;14.614;2024-03-23T08:24:23;97269.01;;;23.61;20.45
75945;BME280;64628;50.104;14.614;2024-03-23T08:26:48;97264.40;;;23.35;21.08
75945;BME280;64628;50.104;14.614;2024-03-23T08:29:13;97263.35;;;23.52;20.98
75945;BME280;64628;50.104;14.614;2024-03-23T08:31:39;97258.49;;;23.72;20.88
75945;BME280;64628;50.104;14.614;2024-03-23T08:34:05;97258.54;;;22.94;21.26
75945;BME280;64628;50.104;14.614;2024-03-23T08:36:30;97256.22;;;22.58;22.20
75945;BME280;64628;50.104;14.614;2024-03-23T08:38:56;97259.64;;;23.17;21.62
75945;BME280;64628;50.104;14.614;2024-03-23T08:41:21;97251.87;;;23.04;21.73
75945;BME280;64628;50.104;14.614;2024-03-23T08:43:47;97249.57;;;23.41;21.75
75945;BME280;64628;50.104;14.614;2024-03-23T08:46:14;97252.43;;;22.31;22.24
75945;BME280;64628;50.104;14.614;2024-03-23T08:48:39;97254.10;;;23.21;21.89
75945;BME280;64628;50.104;14.614;2024-03-23T08:51:03;97257.17;;;23.72;21.69
75945;BME280;64628;50.104;14.614;2024-03-23T08:53:28;97237.28;;;23.40;21.24
75945;BME280;64628;50.104;14.614;2024-03-23T08:55:53;97243.71;;;24.18;20.77
75945;BME280;64628;50.104;14.614;2024-03-23T08:58:18;97233.94;;;24.79;20.20
75945;BME280;64628;50.104;14.614;2024-03-23T09:00:43;97229.45;;;25.55;19.50
75945;BME280;64628;50.104;14.614;2024-03-23T09:03:08;97235.38;;;25.32;19.55
75945;BME280;64628;50.104;14.614;2024-03-23T09:05:39;97233.68;;;25.32;19.30
75945;BME280;64628;50.104;14.614;2024-03-23T09:07:59;97235.90;;;24.68;19.75
75945;BME280;64628;50.104;14.614;2024-03-23T09:10:24;97231.51;;;23.86;20.68
75945;BME280;64628;50.104;14.614;2024-03-23T09:12:50;97224.43;;;23.65;20.78
75945;BME280;64628;50.104;14.614;2024-03-23T09:15:15;97223.28;;;23.38;21.52
75945;BME280;64628;50.104;14.614;2024-03-23T09:17:41;97233.58;;;22.81;21.61
75945;BME280;64628;50.104;14.614;2024-03-23T09:20:06;97227.38;;;21.70;22.59
75945;BME280;64628;50.104;14.614;2024-03-23T09:22:31;97233.22;;;21.33;23.29
75945;BME280;64628;50.104;14.614;2024-03-23T09:24:56;97246.34;;;19.89;24.03
75945;BME280;64628;50.104;14.614;2024-03-23T09:27:21;97243.26;;;19.55;24.97
75945;BME280;64628;50.104;14.614;2024-03-23T09:29:47;97254.78;;;18.77;26.20
75945;BME280;64628;50.104;14.614;2024-03-23T09:32:12;97275.94;;;17.85;28.10
75945;BME280;64628;50.104;14.614;2024-03-23T09:34:37;97280.13;;;17.08;29.99
75945;BME280;64628;50.104;14.614;2024-03-23T09:37:03;97291.31;;;16.95;29.88
75945;BME280;64628;50.104;14.614;2024-03-23T09:39:28;97287.89;;;16.90;29.55
75945;BME280;64628;50.104;14.614;2024-03-23T09:41:57;97281.91;;;16.78;29.50
75945;BME280;64628;50.104;14.614;2024-03-23T09:44:19;97277.20;;;16.58;30.64
75945;BME280;64628;50.104;14.614;2024-03-23T09:46:44;97286.13;;;16.13;31.30
75945;BME280;64628;50.104;14.614;2024-03-23T09:49:10;97271.34;;;15.98;33.53
75945;BME280;64628;50.104;14.614;2024-03-23T09:51:36;97278.90;;;15.61;33.76
75945;BME280;64628;50.104;14.614;2024-03-23T09:54:01;97281.76;;;15.23;33.46
75945;BME280;64628;50.104;14.614;2024-03-23T09:56:26;97286.15;;;15.84;33.30
75945;BME280;64628;50.104;14.614;2024-03-23T09:58:52;97287.37;;;15.38;33.78
75945;BME280;64628;50.104;14.614;2024-03-23T10:01:17;97291.49;;;14.82;34.66
75945;BME280;64628;50.104;14.614;2024-03-23T10:03:43;97294.52;;;15.20;34.53
75945;BME280;64628;50.104;14.614;2024-03-23T10:06:07;97303.06;;;14.65;35.46
75945;BME280;64628;50.104;14.614;2024-03-23T10:08:33;97312.24;;;14.47;37.32
75945;BME280;64628;50.104;14.614;2024-03-23T10:10:58;97326.27;;;14.19;37.38
75945;BME280;64628;50.104;14.614;2024-03-23T10:13:25;97346.25;;;13.40;37.97
75945;BME280;64628;50.104;14.614;2024-03-23T10:15:55;97346.33;;;13.69;37.31
75945;BME280;64628;50.104;14.614;2024-03-23T10:18:18;97344.52;;;13.91;37.02
75945;BME280;64628;50.104;14.614;2024-03-23T10:20:39;97356.65;;;12.99;37.58
75945;BME280;64628;50.104;14.614;2024-03-23T10:23:04;97364.91;;;13.55;37.75
75945;BME280;64628;50.104;14.614;2024-03-23T10:25:30;97357.88;;;13.93;37.39
75945;BME280;64628;50.104;14.614;2024-03-23T10:28:04;97357.29;;;13.62;36.92
75945;BME280;64628;50.104;14.614;2024-03-23T10:30:21;97358.76;;;13.63;37.30
75945;BME280;64628;50.104;14.614;2024-03-23T10:32:45;97364.26;;;14.16;37.16
75945;BME280;64628;50.104;14.614;2024-03-23T10:35:15;97365.54;;;13.54;37.52
75945;BME280;64628;50.104;14.614;2024-03-23T10:37:36;97372.65;;;12.88;38.99
75945;BME280;64628;50.104;14.614;2024-03-23T10:40:04;97374.90;;;13.80;38.33
75945;BME280;64628;50.104;14.614;2024-03-23T10:42:27;97375.15;;;13.67;37.43
75945;BME280;64628;50.104;14.614;2024-03-23T10:44:54;97382.74;;;13.95;37.40
75945;BME280;64628;50.104;14.614;2024-03-23T10:47:19;97380.44;;;13.98;36.96
75945;BME280;64628;50.104;14.614;2024-03-23T10:49:45;97385.23;;;13.48;38.14
75945;BME280;64628;50.104;14.614;2024-03-23T10:52:10;97393.90;;;14.09;37.87
75945;BME280;64628;50.104;14.614;2024-03-23T10:54:36;97385.87;;;13.69;37.70
75945;BME280;64628;50.104;14.614;2024-03-23T10:57:05;97387.32;;;13.38;38.08
75945;BME280;64628;50.104;14.614;2024-03-23T10:59:27;97381.30;;;14.14;36.79
75945;BME280;64628;50.104;14.614;2024-03-23T11:01:56;97385.56;;;14.29;36.90
75945;BME280;64628;50.104;14.614;2024-03-23T11:04:31;97374.65;;;14.14;37.04
75945;BME280;64628;50.104;14.614;2024-03-23T11:06:43;97368.29;;;13.95;36.71
75945;BME280;64628;50.104;14.614;2024-03-23T11:11:34;97372.92;;;13.93;37.40
75945;BME280;64628;50.104;14.614;2024-03-23T11:13:59;97369.72;;;14.48;36.40
75945;BME280;64628;50.104;14.614;2024-03-23T11:16:25;97366.69;;;14.00;36.39
75945;BME280;64628;50.104;14.614;2024-03-23T11:18:51;97369.50;;;14.69;35.84
75945;BME280;64628;50.104;14.614;2024-03-23T11:23:41;97361.75;;;14.37;35.84
75945;BME280;64628;50.104;14.614;2024-03-23T11:26:08;97372.37;;;14.43;35.86
75945;BME280;64628;50.104;14.614;2024-03-23T11:28:33;97375.53;;;14.35;35.84
75945;BME280;64628;50.104;14.614;2024-03-23T11:30:58;97360.34;;;14.17;36.08
75945;BME280;64628;50.104;14.614;2024-03-23T11:33:24;97357.51;;;14.95;34.99
75945;BME280;64628;50.104;14.614;2024-03-23T11:35:49;97370.38;;;14.85;33.97
75945;BME280;64628;50.104;14.614;2024-03-23T11:38:15;97364.92;;;14.97;34.26
75945;BME280;64628;50.104;14.614;2024-03-23T11:40:41;97368.38;;;15.35;33.41
75945;BME280;64628;50.104;14.614;2024-03-23T11:43:07;97360.92;;;16.11;31.92
75945;BME280;64628;50.104;14.614;2024-03-23T11:45:35;97371.90;;;16.60;31.06
75945;BME280;64628;50.104;14.614;2024-03-23T11:48:03;97368.73;;;16.37;31.26
75945;BME280;64628;50.104;14.614;2024-03-23T11:50:21;97363.86;;;16.75;30.79
75945;BME280;64628;50.104;14.614;2024-03-23T11:52:47;97396.45;;;16.87;30.21
75945;BME280;64628;50.104;14.614;2024-03-23T11:55:12;97419.37;;;17.26;29.63
75945;BME280;64628;50.104;14.614;2024-03-23T11:57:37;97439.40;;;16.60;30.63
75945;BME280;64628;50.104;14.614;2024-03-23T12:02:28;97427.84;;;16.06;31.67
75945;BME280;64628;50.104;14.614;2024-03-23T12:04:53;97427.77;;;16.49;31.82
75945;BME280;64628;50.104;14.614;2024-03-23T12:07:20;97438.13;;;16.56;32.10
75945;BME280;64628;50.104;14.614;2024-03-23T12:09:44;97463.23;;;16.50;29.94
75945;BME280;64628;50.104;14.614;2024-03-23T12:12:11;97467.56;;;16.04;29.25
75945;BME280;64628;50.104;14.614;2024-03-23T12:14:35;97478.03;;;16.35;27.89
75945;BME280;64628;50.104;14.614;2024-03-23T12:17:09;97477.31;;;15.26;28.02
75945;BME280;64628;50.104;14.614;2024-03-23T12:19:26;97484.77;;;14.81;27.93
75945;BME280;64628;50.104;14.614;2024-03-23T12:21:51;97491.11;;;14.56;28.43
75945;BME280;64628;50.104;14.614;2024-03-23T12:24:16;97495.10;;;14.02;29.11
75945;BME280;64628;50.104;14.614;2024-03-23T12:26:43;97486.37;;;13.92;29.31
75945;BME280;64628;50.104;14.614;2024-03-23T12:29:07;97495.99;;;14.15;29.19
75945;BME280;64628;50.104;14.614;2024-03-23T12:31:32;97500.30;;;13.72;29.70
75945;BME280;64628;50.104;14.614;2024-03-23T12:33:57;97498.76;;;13.99;28.74
75945;BME280;64628;50.104;14.614;2024-03-23T12:36:23;97492.33;;;13.96;28.45
75945;BME280;64628;50.104;14.614;2024-03-23T12:38:48;97510.61;;;13.96;28.81
75945;BME280;64628;50.104;14.614;2024-03-23T12:41:13;97525.78;;;14.26;28.45
75945;BME280;64628;50.104;14.614;2024-03-23T12:43:40;97534.00;;;13.53;28.62
75945;BME280;64628;50.104;14.614;2024-03-23T12:46:04;97535.79;;;13.13;29.11
75945;BME280;64628;50.104;14.614;2024-03-23T12:48:29;97541.27;;;13.15;29.17
75945;BME280;64628;50.104;14.614;2024-03-23T12:50:55;97528.98;;;13.31;29.29
75945;BME280;64628;50.104;14.614;2024-03-23T12:53:20;97544.13;;;14.29;29.12
75945;BME280;64628;50.104;14.614;2024-03-23T12:55:45;97567.84;;;14.12;28.94
75945;BME280;64628;50.104;14.614;2024-03-23T12:58:11;97587.96;;;14.20;28.26
75945;BME280;64628;50.104;14.614;2024-03-23T13:00:36;97598.27;;;13.81;28.59
75945;BME280;64628;50.104;14.614;2024-03-23T13:03:01;97603.37;;;13.92;28.38
75945;BME280;64628;50.104;14.614;2024-03-23T13:05:27;97617.01;;;14.12;28.41
75945;BME280;64628;50.104;14.614;2024-03-23T13:07:52;97624.90;;;14.03;28.42
75945;BME280;64628;50.104;14.614;2024-03-23T13:10:17;97631.33;;;13.48;28.42
75945;BME280;64628;50.104;14.614;2024-03-23T13:12:43;97647.67;;;14.03;28.08
75945;BME280;64628;50.104;14.614;2024-03-23T13:15:09;97644.39;;;13.71;28.24
75945;BME280;64628;50.104;14.614;2024-03-23T13:17:33;97648.81;;;12.67;28.99
75945;BME280;64628;50.104;14.614;2024-03-23T13:19:59;97661.89;;;12.97;29.14
75945;BME280;64628;50.104;14.614;2024-03-23T13:22:24;97665.57;;;13.62;28.48
75945;BME280;64628;50.104;14.614;2024-03-23T13:24:49;97678.60;;;13.47;27.93
75945;BME280;64628;50.104;14.614;2024-03-23T13:27:15;97670.30;;;13.54;28.16
75945;BME280;64628;50.104;14.614;2024-03-23T13:29:40;97653.69;;;14.25;27.87
75945;BME280;64628;50.104;14.614;2024-03-23T13:32:06;97685.73;;;13.80;27.51
75945;BME280;64628;50.104;14.614;2024-03-23T13:34:31;97683.80;;;14.53;26.96
75945;BME280;64628;50.104;14.614;2024-03-23T13:36:56;97687.54;;;14.38;26.74
75945;BME280;64628;50.104;14.614;2024-03-23T13:39:21;97676.28;;;14.83;26.02
75945;BME280;64628;50.104;14.614;2024-03-23T13:41:47;97681.62;;;14.78;25.49